Time;durP1;ratioP1;P1;durP2;ratioP2;P2;SDS_P1;SDS_P2;PMS_P1;PMS_P2;Temp;Humidity;BMP_temperature;BMP_pressure;BME280_temperature;BME280_humidity;BME280_pressure;Samples;Min_cycle;Max_cycle;Signal;HPM_P1;HPM_P2
2021/06/09 00:01:27;;;;;;;5.70;4.00;;;;;;;16.99;100.00;101311.13;5185141;28;20026;-78
2021/06/09 00:03:57;;;;;;;4.82;3.63;;;;;;;16.84;100.00;101297.84;5189135;28;20022;-78
2021/06/09 00:06:27;;;;;;;10.23;4.10;;;;;;;17.07;100.00;101311.59;5179282;28;20056;-78
2021/06/09 00:08:58;;;;;;;7.97;3.65;;;;;;;16.99;100.00;101305.00;5198469;28;20030;-77
2021/06/09 00:11:29;;;;;;;6.70;3.90;;;;;;;16.89;100.00;101309.00;5180590;28;20025;-78
2021/06/09 00:14:01;;;;;;;6.97;3.72;;;;;;;16.79;100.00;101311.25;5205776;28;20056;-78
2021/06/09 00:16:33;;;;;;;7.32;3.70;;;;;;;16.81;100.00;101305.91;5182064;28;20031;-77
2021/06/09 00:19:05;;;;;;;4.38;3.30;;;;;;;16.77;100.00;101296.44;5181731;28;20022;-78
2021/06/09 00:21:36;;;;;;;4.22;3.28;;;;;;;16.74;100.00;101299.22;5200220;28;20077;-78
2021/06/09 00:24:07;;;;;;;8.38;3.38;;;;;;;16.88;100.00;101299.38;5183576;28;20048;-78
2021/06/09 00:26:37;;;;;;;6.05;3.50;;;;;;;16.78;100.00;101295.50;5177474;28;20026;-78
2021/06/09 00:29:07;;;;;;;7.22;3.53;;;;;;;16.82;100.00;101291.78;5197817;28;20047;-77
2021/06/09 00:31:38;;;;;;;6.47;3.50;;;;;;;16.77;100.00;101297.28;5200492;28;20091;-78
2021/06/09 00:34:09;;;;;;;6.30;3.42;;;;;;;16.74;100.00;101303.66;5187084;28;20147;-78
2021/06/09 00:36:39;;;;;;;8.90;3.85;;;;;;;16.46;100.00;101301.50;5188800;28;20523;-78
2021/06/09 00:39:10;;;;;;;5.35;3.45;;;;;;;16.39;100.00;101310.63;5201943;28;20045;-78
2021/06/09 00:41:40;;;;;;;7.18;4.15;;;;;;;16.42;100.00;101309.63;5183890;28;20089;-78
2021/06/09 00:44:11;;;;;;;9.95;3.95;;;;;;;16.35;100.00;101303.78;5184232;28;20739;-78
2021/06/09 00:46:42;;;;;;;7.38;3.90;;;;;;;16.47;100.00;101311.13;5201617;28;20074;-78
2021/06/09 00:49:13;;;;;;;9.38;4.57;;;;;;;16.42;100.00;101307.81;5186580;28;20033;-77
2021/06/09 00:51:43;;;;;;;5.45;3.80;;;;;;;16.47;100.00;101303.22;5200231;28;20033;-78
2021/06/09 00:54:13;;;;;;;6.75;3.72;;;;;;;16.54;100.00;101304.59;5202148;28;20081;-79
2021/06/09 00:56:44;;;;;;;8.13;3.92;;;;;;;16.51;100.00;101304.75;5199318;28;20036;-78
2021/06/09 00:59:14;;;;;;;6.97;3.90;;;;;;;16.49;100.00;101306.63;5199372;28;20033;-78
2021/06/09 01:01:45;;;;;;;6.95;4.07;;;;;;;16.51;100.00;101304.75;5203782;28;20037;-78
2021/06/09 01:04:15;;;;;;;6.80;4.05;;;;;;;16.49;100.00;101305.75;5201320;28;20116;-78
2021/06/09 01:06:46;;;;;;;7.60;3.60;;;;;;;16.73;100.00;101305.41;5183751;28;20029;-78
2021/06/09 01:09:16;;;;;;;10.00;3.63;;;;;;;16.37;100.00;101309.84;5201878;28;20239;-77
2021/06/09 01:11:46;;;;;;;8.02;3.83;;;;;;;16.24;100.00;101310.47;5200646;28;20477;-77
2021/06/09 01:14:17;;;;;;;7.20;3.72;;;;;;;16.33;100.00;101315.28;5203092;28;20029;-78
2021/06/09 01:16:50;;;;;;;10.43;3.45;;;;;;;16.15;100.00;101311.75;5196944;28;20037;-77
2021/06/09 01:19:21;;;;;;;11.45;3.90;;;;;;;15.89;100.00;101317.34;5181084;28;20784;-79
2021/06/09 01:21:51;;;;;;;9.25;3.55;;;;;;;15.90;100.00;101312.94;5185281;28;20075;-78
2021/06/09 01:24:22;;;;;;;15.57;4.10;;;;;;;16.09;100.00;101309.41;5203420;28;20033;-78
2021/06/09 01:26:52;;;;;;;8.70;3.90;;;;;;;16.14;100.00;101306.53;5195521;28;20116;-77
2021/06/09 01:29:22;;;;;;;8.85;3.75;;;;;;;16.04;100.00;101306.09;5196463;28;20029;-77
2021/06/09 01:31:53;;;;;;;8.82;3.65;;;;;;;16.04;100.00;101313.19;5196569;28;20390;-77
2021/06/09 01:34:23;;;;;;;7.15;4.10;;;;;;;15.96;100.00;101310.03;5199462;28;20071;-77
2021/06/09 01:36:53;;;;;;;13.07;4.43;;;;;;;15.87;100.00;101311.28;5192131;28;20025;-77
2021/06/09 01:39:24;;;;;;;12.07;3.80;;;;;;;16.02;100.00;101313.22;5193478;28;20056;-77
2021/06/09 01:41:54;;;;;;;8.13;3.33;;;;;;;16.05;100.00;101314.88;5195074;28;20040;-77
2021/06/09 01:44:24;;;;;;;8.23;3.40;;;;;;;16.18;100.00;101306.31;5220642;23;20037;-79
2021/06/09 01:46:55;;;;;;;7.20;3.72;;;;;;;16.02;100.00;101307.97;5215861;28;20025;-78
2021/06/09 01:49:25;;;;;;;11.02;4.25;;;;;;;15.88;100.00;101309.53;5219062;28;20091;-78
2021/06/09 01:51:56;;;;;;;7.63;4.22;;;;;;;15.77;100.00;101299.47;5217132;28;20025;-78
2021/06/09 01:54:27;;;;;;;12.23;3.88;;;;;;;15.87;100.00;101305.19;5202795;28;20025;-78
2021/06/09 01:56:57;;;;;;;8.15;4.10;;;;;;;15.89;100.00;101301.53;5198595;28;20030;-78
2021/06/09 01:59:31;;;;;;;8.50;4.10;;;;;;;15.89;100.00;101304.16;5197765;28;20021;-79
2021/06/09 02:02:02;;;;;;;5.65;3.90;;;;;;;15.87;100.00;101305.19;5195236;28;20061;-78
2021/06/09 02:04:33;;;;;;;8.73;4.00;;;;;;;15.83;100.00;101301.81;5196333;28;20052;-78
2021/06/09 02:07:03;;;;;;;6.88;3.75;;;;;;;15.80;100.00;101299.34;5194887;28;20026;-78
2021/06/09 02:09:38;;;;;;;9.48;3.28;;;;;;;15.83;100.00;101299.19;5193428;28;20167;-78
2021/06/09 02:12:09;;;;;;;7.82;3.70;;;;;;;15.79;100.00;101305.53;5196724;28;20129;-78
2021/06/09 02:14:41;;;;;;;11.40;3.50;;;;;;;15.46;100.00;101299.13;5198889;28;20799;-78
2021/06/09 02:17:12;;;;;;;13.25;3.72;;;;;;;15.58;100.00;101303.88;5199248;28;20098;-78
2021/06/09 02:19:42;;;;;;;8.82;3.80;;;;;;;15.58;100.00;101306.50;5194452;28;20117;-78
2021/06/09 02:22:13;;;;;;;6.28;3.70;;;;;;;15.52;100.00;101304.09;5178792;28;20200;-78
2021/06/09 02:24:43;;;;;;;15.18;4.47;;;;;;;15.28;100.00;101304.28;5179573;28;20033;-78
2021/06/09 02:27:14;;;;;;;9.88;4.20;;;;;;;15.18;100.00;101298.56;5196130;28;20025;-78
2021/06/09 02:29:44;;;;;;;13.73;4.03;;;;;;;14.92;100.00;101295.31;5175417;28;20148;-78
2021/06/09 02:32:18;;;;;;;11.00;4.30;;;;;;;15.05;100.00;101296.53;5195156;28;20414;-78
2021/06/09 02:34:48;;;;;;;10.02;3.90;;;;;;;15.19;100.00;101300.28;5196335;28;20045;-78
2021/06/09 02:37:21;;;;;;;8.45;3.97;;;;;;;15.47;100.00;101292.94;5194588;28;20025;-78
2021/06/09 02:39:51;;;;;;;9.35;4.15;;;;;;;15.69;100.00;101296.31;5191601;28;20029;-78
2021/06/09 02:42:22;;;;;;;8.88;3.92;;;;;;;15.67;100.00;101295.53;5179360;28;20022;-78
2021/06/09 02:44:52;;;;;;;8.40;4.10;;;;;;;15.57;100.00;101307.38;5194063;28;20391;-78
2021/06/09 02:47:23;;;;;;;9.13;3.90;;;;;;;15.58;100.00;101301.22;5192001;28;20042;-77
2021/06/09 02:49:56;;;;;;;7.15;4.40;;;;;;;15.56;100.00;101300.41;5195055;28;20447;-78
2021/06/09 02:52:34;;;;;;;10.82;4.22;;;;;;;15.59;100.00;101304.69;5196230;28;20021;-78
2021/06/09 02:55:32;;;;;;;11.70;4.18;;;;;;;15.56;100.00;101297.78;5174009;28;20400;-78
2021/06/09 02:58:12;;;;;;;7.47;4.38;;;;;;;15.56;100.00;101297.78;5189021;28;20025;-78
2021/06/09 03:00:55;;;;;;;10.70;4.13;;;;;;;15.62;100.00;101305.44;5194502;28;20036;-78
2021/06/09 03:03:41;;;;;;;5.53;3.70;;;;;;;15.61;100.00;101311.63;5192167;28;20033;-78
2021/06/09 03:06:27;;;;;;;;;;;;;;;15.63;100.00;101299.22;5173990;28;20545;-78
2021/06/09 03:09:23;;;;;;;10.73;3.28;;;;;;;15.43;100.00;101298.38;5194787;28;20382;-78
2021/06/09 03:12:06;;;;;;;9.68;3.70;;;;;;;15.39;100.00;101308.19;5194393;28;20040;-78
2021/06/09 03:15:09;;;;;;;10.07;3.58;;;;;;;15.14;100.00;101301.38;5191704;28;20033;-78
2021/06/09 03:17:51;;;;;;;11.55;3.45;;;;;;;15.29;100.00;101301.63;5192560;28;20028;-78
2021/06/09 03:20:40;;;;;;;7.53;3.20;;;;;;;15.51;100.00;101297.13;5194669;28;20049;-78
2021/06/09 03:23:16;;;;;;;8.05;3.90;;;;;;;15.26;100.00;101301.75;5191901;28;20026;-78
2021/06/09 03:26:09;;;;;;;8.38;3.70;;;;;;;15.39;100.00;101299.47;5177048;28;20038;-78
2021/06/09 03:29:04;;;;;;;5.50;3.53;;;;;;;15.47;100.00;101290.28;5193307;28;20436;-78
2021/06/09 03:31:39;;;;;;;7.22;3.63;;;;;;;15.46;100.00;101288.59;5193193;28;20029;-78
2021/06/09 03:34:16;;;;;;;9.75;3.70;;;;;;;15.72;100.00;101280.34;5195227;28;20507;-78
2021/06/09 03:36:50;;;;;;;8.23;3.33;;;;;;;15.64;100.00;101290.41;5174708;28;20064;-78
2021/06/09 03:39:23;;;;;;;8.00;3.35;;;;;;;15.83;100.00;101285.13;5195761;28;20044;-78
2021/06/09 03:41:57;;;;;;;8.13;3.10;;;;;;;15.58;100.00;101285.41;5175932;28;20076;-78
2021/06/09 03:44:32;;;;;;;6.43;3.25;;;;;;;15.75;100.00;101287.28;5194776;28;20033;-78
2021/06/09 03:47:04;;;;;;;9.50;3.63;;;;;;;15.90;100.00;101290.06;5177441;28;20036;-78
2021/06/09 03:49:36;;;;;;;7.20;3.22;;;;;;;16.05;100.00;101288.50;5198326;28;20037;-78
2021/06/09 03:52:09;;;;;;;7.95;3.00;;;;;;;16.01;100.00;101293.06;5193722;28;20021;-78
2021/06/09 03:54:43;;;;;;;6.43;3.47;;;;;;;15.90;100.00;101290.06;5192724;28;20629;-78
2021/06/09 03:57:15;;;;;;;10.73;3.88;;;;;;;15.84;100.00;101287.72;5175405;28;20029;-78
2021/06/09 03:59:46;;;;;;;9.68;3.60;;;;;;;15.83;100.00;101287.78;5193668;28;20029;-78
2021/06/09 04:02:19;;;;;;;6.82;3.63;;;;;;;15.85;100.00;101285.94;5175337;28;20094;-78
2021/06/09 04:04:53;;;;;;;8.02;4.03;;;;;;;15.80;100.00;101280.88;5199109;28;20512;-78
2021/06/09 04:07:27;;;;;;;8.23;3.75;;;;;;;15.83;100.00;101283.38;5196202;28;20049;-78
2021/06/09 04:10:01;;;;;;;7.88;3.75;;;;;;;15.96;100.00;101278.38;5201313;28;20093;-78
2021/06/09 04:12:35;;;;;;;6.28;3.90;;;;;;;15.93;100.00;101278.53;5198488;28;20056;-78
2021/06/09 04:15:09;;;;;;;4.28;3.60;;;;;;;15.89;100.00;101275.16;5183345;28;20030;-78
2021/06/09 04:17:45;;;;;;;7.03;3.63;;;;;;;15.93;100.00;101270.63;5199632;28;20519;-78
2021/06/09 04:20:24;;;;;;;7.60;3.78;;;;;;;15.96;100.00;101283.66;5198032;28;20037;-78
2021/06/09 04:22:54;;;;;;;5.43;3.70;;;;;;;15.97;100.00;101280.97;5201202;28;20076;-78
2021/06/09 04:25:25;;;;;;;6.32;3.53;;;;;;;15.96;100.00;101281.00;5200552;28;20075;-79
2021/06/09 04:27:57;;;;;;;7.47;3.65;;;;;;;15.90;100.00;101279.50;5183370;28;20025;-78
2021/06/09 04:30:27;;;;;;;4.47;3.30;;;;;;;15.94;100.00;101278.47;5200716;28;20375;-78
2021/06/09 04:33:01;;;;;;;6.05;3.05;;;;;;;15.87;100.00;101287.56;5203322;28;20033;-78
2021/06/09 04:35:44;;;;;;;7.38;2.83;;;;;;;16.10;100.00;101284.75;5198972;28;20545;-78
2021/06/09 04:38:18;;;;;;;9.75;3.42;;;;;;;16.04;100.00;101285.00;5181706;28;20051;-78
2021/06/09 04:40:51;;;;;;;8.50;3.40;;;;;;;16.00;100.00;101278.19;5196692;28;20509;-78
2021/06/09 04:43:24;;;;;;;9.00;3.47;;;;;;;16.18;100.00;101279.09;5179034;28;20026;-79
2021/06/09 04:45:55;;;;;;;8.05;3.22;;;;;;;16.28;100.00;101275.97;5199626;28;20033;-78
2021/06/09 04:48:26;;;;;;;7.32;3.33;;;;;;;16.25;100.00;101280.50;5197739;28;20021;-80
2021/06/09 04:50:56;;;;;;;6.88;3.22;;;;;;;16.23;100.00;101282.38;5187770;28;20026;-80
2021/06/09 04:53:26;;;;;;;7.00;3.00;;;;;;;16.36;100.00;101286.19;5207273;28;20036;-81
2021/06/09 04:55:57;;;;;;;9.30;3.17;;;;;;;16.58;100.00;101284.22;5196989;28;20037;-80
2021/06/09 04:58:27;;;;;;;8.25;3.30;;;;;;;16.68;100.00;101281.03;5199128;28;20021;-77
2021/06/09 05:00:58;;;;;;;10.40;3.30;;;;;;;16.50;100.00;101279.31;5203205;28;20029;-79
2021/06/09 05:03:29;;;;;;;5.53;3.30;;;;;;;16.43;100.00;101279.66;5184941;28;20036;-81
2021/06/09 05:05:59;;;;;;;7.20;3.05;;;;;;;16.69;100.00;101277.47;5179163;28;20582;-81
2021/06/09 05:08:29;;;;;;;7.55;3.13;;;;;;;16.98;100.00;101279.53;5203232;28;20017;-81
2021/06/09 05:11:02;;;;;;;8.82;3.00;;;;;;;17.06;100.00;101283.47;5183061;28;20087;-81
2021/06/09 05:13:35;;;;;;;4.18;2.70;;;;;;;16.77;100.00;101282.38;5188056;28;20094;-80
2021/06/09 05:16:09;;;;;;;8.15;3.10;;;;;;;16.61;100.00;101279.66;5181233;28;20022;-81
2021/06/09 05:18:45;;;;;;;4.75;2.80;;;;;;;16.75;100.00;101274.50;5199884;28;20066;-80
2021/06/09 05:21:21;;;;;;;4.40;2.80;;;;;;;16.95;100.00;101274.41;5186439;28;20021;-80
2021/06/09 05:23:54;;;;;;;4.93;2.75;;;;;;;16.87;100.00;101271.28;5203985;28;20033;-81
2021/06/09 05:26:25;;;;;;;5.55;3.35;;;;;;;16.78;100.00;101271.75;5183867;28;20022;-80
2021/06/09 05:29:00;;;;;;;9.55;3.25;;;;;;;17.02;100.00;101273.16;5183482;28;20390;-80
2021/06/09 05:31:32;;;;;;;5.47;2.70;;;;;;;16.92;100.00;101274.53;5188072;28;20034;-79
2021/06/09 05:34:04;;;;;;;7.25;3.22;;;;;;;16.90;100.00;101268.47;5184414;28;20033;-78
2021/06/09 05:36:35;;;;;;;8.65;3.13;;;;;;;16.77;100.00;101273.53;5202090;28;20043;-79
2021/06/09 05:39:05;;;;;;;5.55;3.10;;;;;;;16.78;100.00;101274.38;5186989;28;20029;-80
2021/06/09 05:41:36;;;;;;;9.15;2.97;;;;;;;16.85;100.00;101275.78;5205279;28;20100;-80
2021/06/09 05:44:06;;;;;;;4.78;3.22;;;;;;;16.99;100.00;101276.78;5186186;28;20040;-81
2021/06/09 05:46:36;;;;;;;5.15;3.10;;;;;;;17.17;100.00;101277.66;5188301;28;20100;-79
2021/06/09 05:49:07;;;;;;;6.10;3.05;;;;;;;17.38;100.00;101279.22;5201576;28;20025;-79
2021/06/09 05:51:37;;;;;;;6.85;3.00;;;;;;;17.54;100.00;101285.41;5189554;28;20017;-79
2021/06/09 05:54:07;;;;;;;8.32;3.35;;;;;;;18.54;100.00;101269.19;5187259;28;20093;-81
2021/06/09 05:56:39;;;;;;;6.05;2.95;;;;;;;19.62;93.78;101270.66;5200103;28;20081;-81
2021/06/09 05:59:12;;;;;;;5.35;3.03;;;;;;;20.31;97.27;101269.75;5202842;28;20113;-79
2021/06/09 06:01:44;;;;;;;3.88;2.40;;;;;;;21.17;92.47;101275.47;5213197;28;20029;-81
2021/06/09 06:04:14;;;;;;;7.80;2.40;;;;;;;21.95;87.14;101270.81;5184401;28;20030;-81
2021/06/09 06:06:48;;;;;;;8.95;2.00;;;;;;;20.92;84.83;101270.13;5189938;28;20090;-81
2021/06/09 06:09:19;;;;;;;4.15;2.17;;;;;;;21.11;81.09;101283.88;5184713;28;20018;-79
2021/06/09 06:11:51;;;;;;;4.22;1.83;;;;;;;21.21;81.22;101267.19;5187798;28;20032;-79
2021/06/09 06:14:24;;;;;;;5.05;2.00;;;;;;;21.63;82.69;101274.06;5189625;28;20029;-79
2021/06/09 06:16:56;;;;;;;7.15;1.88;;;;;;;21.81;82.75;101283.41;5188381;28;20025;-79
2021/06/09 06:19:37;;;;;;;3.42;1.60;;;;;;;22.59;78.57;101277.69;5188870;28;20021;-81
2021/06/09 06:22:08;;;;;;;2.90;1.70;;;;;;;22.48;79.64;101274.97;5186482;28;20029;-79
2021/06/09 06:24:41;;;;;;;5.07;1.63;;;;;;;21.45;82.51;101280.63;5187613;28;21449;-81
2021/06/09 06:27:12;;;;;;;4.70;1.73;;;;;;;20.57;85.12;101282.19;5179684;28;20038;-79
2021/06/09 06:29:45;;;;;;;4.32;1.60;;;;;;;21.00;83.70;101278.41;5186404;28;20611;-82
2021/06/09 06:32:15;;;;;;;4.28;1.40;;;;;;;21.05;85.26;101281.63;5182286;28;20095;-81
2021/06/09 06:34:50;;;;;;;2.97;1.80;;;;;;;21.10;82.42;101277.69;5183759;28;20378;-79
2021/06/09 06:37:24;;;;;;;2.78;1.60;;;;;;;21.92;87.25;101280.84;5183472;28;20483;-78
2021/06/09 06:39:55;;;;;;;3.65;1.40;;;;;;;21.85;79.29;101274.22;5185052;28;20087;-78
2021/06/09 06:42:28;;;;;;;3.63;1.60;;;;;;;21.80;74.26;101271.06;5184571;28;20053;-79
2021/06/09 06:45:00;;;;;;;3.45;1.55;;;;;;;22.79;73.36;101260.09;5304779;23;20101;-81
2021/06/09 06:47:31;;;;;;;3.00;1.52;;;;;;;23.36;70.34;101263.69;5177105;28;20226;-82
2021/06/09 06:50:03;;;;;;;5.00;1.60;;;;;;;23.82;71.17;101263.59;5176122;28;20412;-81
2021/06/09 06:52:34;;;;;;;2.90;1.52;;;;;;;24.08;73.36;101273.09;5175296;28;20081;-82
2021/06/09 06:55:05;;;;;;;3.80;1.65;;;;;;;24.50;70.27;101272.28;5176364;28;20049;-81
2021/06/09 07:00:11;;;;;;;;;;;;;;;24.20;73.96;101267.63;5216532;28;20140;-77
2021/06/09 07:02:46;;;;;;;2.67;1.55;;;;;;;24.06;69.03;101267.03;5219470;28;20366;-78
2021/06/09 07:05:18;;;;;;;2.27;1.40;;;;;;;24.73;65.50;101275.66;5214867;28;20035;-78
2021/06/09 07:07:49;;;;;;;2.95;1.30;;;;;;;24.67;63.71;101276.13;5217452;28;20275;-78
2021/06/09 07:10:20;;;;;;;4.35;1.52;;;;;;;24.22;64.96;101286.22;5220280;28;20036;-77
2021/06/09 07:12:51;;;;;;;5.35;1.60;;;;;;;23.63;70.16;101288.25;5219314;28;20028;-77
2021/06/09 07:15:22;;;;;;;4.25;1.73;;;;;;;23.06;70.65;101284.66;5212614;28;20030;-78
2021/06/09 07:17:56;;;;;;;3.55;1.80;;;;;;;23.12;69.66;101278.06;5226064;28;20037;-78
2021/06/09 07:20:29;;;;;;;4.32;1.70;;;;;;;22.83;72.64;101282.88;5219640;28;20025;-78
2021/06/09 07:23:00;;;;;;;3.30;1.55;;;;;;;22.73;72.13;101287.22;5219487;28;20036;-77
2021/06/09 07:25:31;;;;;;;3.85;1.50;;;;;;;22.60;71.38;101290.06;5198697;28;20024;-77
2021/06/09 07:28:04;;;;;;;4.28;1.70;;;;;;;23.39;68.14;101292.78;5214181;28;20467;-76
2021/06/09 07:30:37;;;;;;;3.20;1.50;;;;;;;23.73;67.24;101286.53;5215791;28;20040;-78
2021/06/09 07:33:07;;;;;;;5.18;1.50;;;;;;;24.25;66.29;101288.63;5214988;28;20036;-77
2021/06/09 07:35:38;;;;;;;2.67;1.40;;;;;;;24.66;64.48;101295.00;5216049;28;20024;-78
2021/06/09 07:38:16;;;;;;;4.78;1.73;;;;;;;24.55;64.78;101289.69;5214981;28;20134;-77
2021/06/09 07:40:50;;;;;;;4.53;1.50;;;;;;;24.75;67.05;101286.22;5212589;28;20033;-78
2021/06/09 07:43:30;;;;;;;2.23;1.40;;;;;;;25.27;64.90;101291.59;5217275;28;20094;-77
2021/06/09 07:46:01;;;;;;;4.93;1.40;;;;;;;25.73;63.38;101290.22;5214112;28;20480;-77
2021/06/09 07:48:33;;;;;;;5.22;1.50;;;;;;;25.08;64.66;101288.75;5214414;28;20040;-77
2021/06/09 07:51:07;;;;;;;5.85;1.80;;;;;;;24.00;67.33;101287.06;5215029;28;20060;-77
2021/06/09 07:53:40;;;;;;;4.40;1.67;;;;;;;24.04;70.64;101290.34;5216724;28;20032;-77
2021/06/09 07:56:13;;;;;;;2.40;1.58;;;;;;;23.40;69.00;101283.81;5218114;28;20210;-77
2021/06/09 07:58:48;;;;;;;4.50;1.63;;;;;;;22.49;71.79;101282.00;5216221;28;20036;-77
2021/06/09 08:01:18;;;;;;;3.97;1.80;;;;;;;22.37;71.22;101282.84;5216557;28;20021;-77
2021/06/09 08:03:50;;;;;;;2.53;1.75;;;;;;;22.16;69.95;101282.59;5217616;28;20035;-77
2021/06/09 08:06:21;;;;;;;2.65;1.58;;;;;;;21.99;73.60;101288.28;5216327;28;20029;-77
2021/06/09 08:08:52;;;;;;;4.53;2.00;;;;;;;22.02;73.54;101285.41;5215940;28;20059;-76
2021/06/09 08:11:22;;;;;;;4.63;1.50;;;;;;;21.96;72.30;101284.97;5213821;28;20061;-76
2021/06/09 08:13:53;;;;;;;4.25;1.65;;;;;;;21.93;73.70;101287.88;5216659;28;20029;-77
2021/06/09 08:16:23;;;;;;;2.45;1.50;;;;;;;22.55;69.17;101282.38;5213211;28;20033;-77
2021/06/09 08:18:54;;;;;;;5.63;1.90;;;;;;;22.45;72.15;101280.53;5215112;28;20025;-77
2021/06/09 08:21:26;;;;;;;3.97;1.90;;;;;;;22.50;75.15;101278.34;5213129;28;20234;-77
2021/06/09 08:23:56;;;;;;;5.00;1.92;;;;;;;22.56;74.87;101269.94;5216027;28;20464;-76
2021/06/09 08:26:27;;;;;;;2.88;1.65;;;;;;;23.25;74.08;101273.50;5215091;28;20025;-77
2021/06/09 08:28:58;;;;;;;6.18;1.80;;;;;;;23.29;74.74;101275.81;5213914;28;20044;-77
2021/06/09 08:31:30;;;;;;;5.47;1.73;;;;;;;23.04;77.21;101275.94;5215032;28;20029;-77
2021/06/09 08:34:02;;;;;;;2.42;1.73;;;;;;;22.94;77.56;101280.28;5215402;28;20033;-77
2021/06/09 08:36:34;;;;;;;5.65;1.80;;;;;;;22.62;76.56;101280.13;5215078;28;20033;-77
2021/06/09 08:39:04;;;;;;;2.40;1.67;;;;;;;22.43;77.62;101288.63;5213184;28;20029;-77
2021/06/09 08:41:39;;;;;;;4.80;1.88;;;;;;;22.33;78.52;101286.69;5215013;28;20040;-77
2021/06/09 08:44:10;;;;;;;4.18;2.00;;;;;;;22.64;78.61;101280.88;5212067;28;20037;-77
2021/06/09 08:46:41;;;;;;;6.45;2.13;;;;;;;22.49;78.39;101276.66;5210366;28;20445;-77
2021/06/09 08:49:12;;;;;;;3.50;1.92;;;;;;;22.73;77.18;101281.91;5212547;28;20025;-77
2021/06/09 08:51:43;;;;;;;4.28;1.90;;;;;;;22.53;80.01;101284.31;5213168;28;20030;-77
2021/06/09 08:54:14;;;;;;;3.25;1.80;;;;;;;22.67;77.84;101280.63;5212988;28;20036;-77
2021/06/09 08:56:46;;;;;;;3.65;2.10;;;;;;;22.63;78.39;101276.50;5216162;28;20393;-77
2021/06/09 08:59:16;;;;;;;3.28;1.92;;;;;;;22.27;79.57;101272.00;5216227;28;20025;-78
2021/06/09 09:01:48;;;;;;;3.40;1.80;;;;;;;22.51;78.18;101274.72;5220242;28;20478;-77
2021/06/09 09:04:19;;;;;;;6.32;2.20;;;;;;;22.29;77.69;101275.41;5213395;28;20597;-77
2021/06/09 09:06:49;;;;;;;3.08;1.95;;;;;;;22.20;79.56;101275.22;5216932;28;20039;-77
2021/06/09 09:09:19;;;;;;;4.13;2.30;;;;;;;22.16;79.49;101265.75;5220734;28;20016;-77
2021/06/09 09:11:50;;;;;;;4.73;2.57;;;;;;;22.87;76.01;101270.19;5214101;28;20040;-77
2021/06/09 09:14:20;;;;;;;5.50;2.35;;;;;;;23.03;73.09;101263.56;5212667;28;20383;-77
2021/06/09 09:17:10;;;;;;;4.72;2.33;;;;;;;24.24;70.56;101270.91;5215714;28;20113;-76
2021/06/09 09:19:45;;;;;;;3.55;2.40;;;;;;;24.30;69.03;101279.28;5197953;28;20128;-77
2021/06/09 09:22:30;;;;;;;4.15;2.20;;;;;;;24.79;67.67;101276.97;5215760;28;20029;-76
2021/06/09 09:25:12;;;;;;;3.63;2.17;;;;;;;24.34;70.26;101280.72;5215449;28;20024;-77
2021/06/09 09:27:54;;;;;;;5.28;2.10;;;;;;;24.97;68.65;101281.63;5219013;28;20025;-77
2021/06/09 09:30:29;;;;;;;5.50;2.50;;;;;;;25.21;68.36;101284.97;5215341;28;20029;-77
2021/06/09 09:33:09;;;;;;;4.65;2.40;;;;;;;24.87;69.54;101290.56;5211817;28;20079;-77
2021/06/09 09:35:42;;;;;;;5.45;2.50;;;;;;;23.91;72.32;101287.78;5220632;28;20041;-77
2021/06/09 09:38:31;;;;;;;4.63;2.20;;;;;;;23.65;76.12;101294.31;5217433;28;20025;-77
2021/06/09 09:41:13;;;;;;;5.38;2.30;;;;;;;23.57;78.05;101295.88;5218210;28;20112;-77
2021/06/09 09:43:44;;;;;;;7.18;2.47;;;;;;;23.56;72.94;101292.34;5212504;28;20141;-77
2021/06/09 09:46:50;;;;;;;3.22;2.38;;;;;;;23.81;75.13;101294.81;5213312;28;20021;-77
2021/06/09 09:49:20;;;;;;;4.77;2.43;;;;;;;24.13;72.62;101290.47;5201434;28;20394;-76
2021/06/09 09:51:53;;;;;;;5.75;2.80;;;;;;;23.60;75.88;101296.50;5216057;28;20104;-77
2021/06/09 09:54:32;;;;;;;6.35;2.92;;;;;;;23.58;75.21;101285.09;5212607;28;20059;-77
2021/06/09 09:57:06;;;;;;;5.07;2.70;;;;;;;23.74;75.28;101290.91;5211913;28;20032;-77
2021/06/09 09:59:39;;;;;;;4.05;2.30;;;;;;;23.94;73.29;101287.56;5210352;28;20072;-77
2021/06/09 10:02:15;;;;;;;4.10;2.00;;;;;;;25.25;68.39;101293.56;5213471;28;20025;-77
2021/06/09 10:04:52;;;;;;;6.65;2.30;;;;;;;25.24;69.59;101281.16;5211330;28;20410;-77
2021/06/09 10:07:23;;;;;;;4.57;2.10;;;;;;;26.17;67.65;101278.28;5215411;28;20041;-77
2021/06/09 10:09:59;;;;;;;5.07;2.22;;;;;;;25.38;65.75;101284.38;5215712;28;20033;-77
2021/06/09 10:12:29;;;;;;;5.50;2.40;;;;;;;25.56;66.98;101271.22;5212205;28;20034;-77
2021/06/09 10:15:00;;;;;;;6.97;2.35;;;;;;;25.28;67.68;101269.22;5219593;28;20108;-79
2021/06/09 10:17:33;;;;;;;5.95;2.30;;;;;;;25.33;68.02;101267.00;5218616;28;20039;-78
2021/06/09 10:20:06;;;;;;;4.50;2.22;;;;;;;25.50;65.64;101267.22;5218832;28;20029;-78
2021/06/09 10:22:37;;;;;;;4.07;2.10;;;;;;;25.52;68.92;101264.44;5214078;28;20029;-77
2021/06/09 10:25:10;;;;;;;4.35;1.90;;;;;;;25.25;70.56;101266.78;5215591;28;20040;-77
2021/06/09 10:27:49;;;;;;;5.70;2.40;;;;;;;25.43;66.08;101271.44;5214615;28;20059;-77
2021/06/09 10:30:22;;;;;;;4.80;2.30;;;;;;;25.06;68.92;101267.50;5212388;28;20499;-77
2021/06/09 10:32:57;;;;;;;5.72;2.28;;;;;;;24.32;68.03;101271.97;5215278;28;20024;-77
2021/06/09 10:35:30;;;;;;;4.75;2.10;;;;;;;24.80;70.34;101266.13;5213179;28;20029;-77
2021/06/09 10:38:02;;;;;;;5.57;2.42;;;;;;;24.36;71.14;101276.09;5214426;28;20086;-77
2021/06/09 10:40:34;;;;;;;4.22;2.40;;;;;;;24.42;71.67;101264.06;5211499;28;20021;-77
2021/06/09 10:43:05;;;;;;;5.45;2.08;;;;;;;24.85;70.86;101265.75;5212619;28;20021;-77
2021/06/09 10:45:39;;;;;;;4.20;2.40;;;;;;;24.76;71.39;101264.69;5212798;28;20049;-77
2021/06/09 10:48:13;;;;;;;5.03;2.17;;;;;;;24.74;71.83;101261.31;5208197;28;20029;-78
2021/06/09 10:50:44;;;;;;;6.32;2.20;;;;;;;24.40;76.05;101258.81;5209800;28;20017;-77
2021/06/09 10:53:16;;;;;;;2.97;2.28;;;;;;;24.53;75.39;101259.56;5212148;28;20032;-77
2021/06/09 10:55:47;;;;;;;5.53;2.30;;;;;;;24.37;74.24;101263.59;5212424;28;20037;-76
2021/06/09 10:58:18;;;;;;;4.13;2.40;;;;;;;24.38;74.97;101255.44;5212515;28;20047;-76
2021/06/09 11:00:49;;;;;;;4.25;2.35;;;;;;;24.09;73.88;101256.97;5210856;28;20029;-77
2021/06/09 11:03:19;;;;;;;4.55;2.50;;;;;;;24.20;74.21;101251.56;5211260;28;20029;-77
2021/06/09 11:05:50;;;;;;;4.30;2.25;;;;;;;24.36;76.68;101249.38;5210415;28;20064;-78
2021/06/09 11:08:20;;;;;;;3.13;2.38;;;;;;;25.18;75.92;101245.03;5217046;28;20021;-78
2021/06/09 11:10:51;;;;;;;4.60;2.20;;;;;;;25.35;71.58;101243.63;5216927;28;20036;-77
2021/06/09 11:13:31;;;;;;;5.00;2.13;;;;;;;25.54;71.64;101241.91;5210398;28;20644;-78
2021/06/09 11:16:09;;;;;;;4.20;2.20;;;;;;;25.54;73.08;101244.59;5212854;28;20049;-77
2021/06/09 11:18:46;;;;;;;4.53;2.20;;;;;;;25.34;67.49;101247.28;5211293;28;20048;-77
2021/06/09 11:21:24;;;;;;;9.60;2.63;;;;;;;25.10;67.39;101255.53;5212714;28;20033;-78
2021/06/09 11:24:08;;;;;;;3.30;2.22;;;;;;;24.76;71.82;101242.44;5215992;28;20475;-77
2021/06/09 11:26:40;;;;;;;5.80;2.67;;;;;;;24.63;69.79;101241.78;5216813;28;20045;-77
2021/06/09 11:29:29;;;;;;;3.63;2.50;;;;;;;24.90;70.99;101239.47;5212688;28;20092;-77
2021/06/09 11:32:17;;;;;;;6.78;2.55;;;;;;;24.73;69.85;101231.16;5216101;28;20029;-77
2021/06/09 11:34:57;;;;;;;4.18;2.40;;;;;;;25.09;71.36;101229.75;5212202;28;20025;-77
2021/06/09 11:37:29;;;;;;;4.55;2.90;;;;;;;24.64;72.02;101221.22;5196637;28;20502;-77
2021/06/09 11:40:01;;;;;;;5.80;2.83;;;;;;;24.84;71.02;101229.28;5209623;28;20036;-77
2021/06/09 11:42:32;;;;;;;5.40;2.63;;;;;;;24.97;73.80;101216.59;5213332;28;20040;-77
2021/06/09 11:45:24;;;;;;;5.93;3.10;;;;;;;25.05;67.48;101206.91;5212342;28;20096;-77
2021/06/09 11:48:16;;;;;;;6.35;3.05;;;;;;;25.38;72.08;101213.91;5219230;28;20215;-77
2021/06/09 11:50:46;;;;;;;5.20;3.30;;;;;;;24.99;68.12;101214.63;5213242;28;20075;-76
2021/06/09 11:53:37;;;;;;;7.53;3.40;;;;;;;24.86;66.53;101205.94;5211556;28;20051;-76